Time;durP1;ratioP1;P1;durP2;ratioP2;P2;SDS_P1;SDS_P2;PMS_P1;PMS_P2;Temp;Humidity;BMP_temperature;BMP_pressure;BME280_temperature;BME280_humidity;BME280_pressure;Samples;Min_cycle;Max_cycle;Signal;HPM_P1;HPM_P2
2020/12/31 00:01:03;;;;;;;16.73;7.97;;;;;;;;;;5054536;28;20021;-92
2020/12/31 00:03:29;;;;;;;10.82;7.07;;;;;;;;;;5053503;28;20036;-93
2020/12/31 00:05:55;;;;;;;12.70;6.80;;;;;;;;;;5053752;28;20104;-94
2020/12/31 00:08:21;;;;;;;12.88;6.82;;;;;;;;;;5057253;28;20047;-93
2020/12/31 00:10:47;;;;;;;16.50;7.35;;;;;;;;;;5055539;28;20044;-93
2020/12/31 00:13:13;;;;;;;22.35;7.32;;;;;;;;;;5053194;28;20441;-93
2020/12/31 00:15:39;;;;;;;14.05;8.35;;;;;;;;;;5057300;28;20031;-92
2020/12/31 00:18:05;;;;;;;16.27;7.57;;;;;;;;;;5054953;28;20108;-92
2020/12/31 00:20:32;;;;;;;19.65;8.27;;;;;;;;;;5056303;28;20074;-93
2020/12/31 00:22:58;;;;;;;15.07;7.97;;;;;;;;;;5055428;28;20582;-92
2020/12/31 00:25:25;;;;;;;17.25;7.45;;;;;;;;;;5057517;28;20047;-92
2020/12/31 00:27:51;;;;;;;16.55;7.47;;;;;;;;;;5053033;28;20049;-92
2020/12/31 00:30:18;;;;;;;14.82;7.18;;;;;;;;;;5052128;28;20446;-94
2020/12/31 00:32:45;;;;;;;16.63;7.60;;;;;;;;;;5061217;28;20029;-93
2020/12/31 00:35:11;;;;;;;15.80;7.43;;;;;;;;;;5052224;28;20017;-92
2020/12/31 00:37:37;;;;;;;14.32;8.13;;;;;;;;;;5051540;28;20072;-93
2020/12/31 00:40:04;;;;;;;14.82;8.65;;;;;;;;;;5054055;28;20017;-94
2020/12/31 00:42:31;;;;;;;13.38;7.07;;;;;;;;;;5054229;28;20032;-94
2020/12/31 00:44:57;;;;;;;13.82;7.57;;;;;;;;;;5051668;28;20154;-94
2020/12/31 00:47:23;;;;;;;16.95;8.10;;;;;;;;;;5063850;28;20112;-93
2020/12/31 00:49:49;;;;;;;15.43;6.55;;;;;;;;;;5052881;28;20025;-93
2020/12/31 00:52:15;;;;;;;16.15;6.70;;;;;;;;;;5053064;28;20059;-92
2020/12/31 00:54:41;;;;;;;13.02;6.53;;;;;;;;;;5055709;28;20063;-91
2020/12/31 00:57:07;;;;;;;15.52;7.38;;;;;;;;;;5051779;28;20048;-92
2020/12/31 00:59:33;;;;;;;17.38;7.47;;;;;;;;;;5058325;28;20384;-90
2020/12/31 01:02:00;;;;;;;17.30;6.75;;;;;;;;;;5050932;28;20049;-90
2020/12/31 01:04:26;;;;;;;14.70;8.43;;;;;;;;;;5054166;28;20048;-90
2020/12/31 01:06:52;;;;;;;17.75;7.78;;;;;;;;;;5049603;28;20021;-90
2020/12/31 01:09:18;;;;;;;15.85;7.18;;;;;;;;;;5053376;28;20474;-90
2020/12/31 01:11:44;;;;;;;15.07;4.78;;;;;;;;;;5050707;28;20037;-91
2020/12/31 01:14:10;;;;;;;10.65;4.50;;;;;;;;;;5070399;28;20028;-90
2020/12/31 01:16:36;;;;;;;10.00;4.10;;;;;;;;;;5051032;28;20025;-90
2020/12/31 01:19:03;;;;;;;6.18;2.40;;;;;;;;;;5054738;28;20467;-93
2020/12/31 01:21:29;;;;;;;4.82;1.98;;;;;;;;;;5056542;28;20055;-94
2020/12/31 01:23:55;;;;;;;6.97;2.63;;;;;;;;;;5056966;28;20032;-93
2020/12/31 01:26:31;;;;;;;7.82;2.38;;;;;;;;;;5060168;28;20039;-94
2020/12/31 01:28:57;;;;;;;8.23;2.92;;;;;;;;;;5053001;28;20312;-92
2020/12/31 01:31:23;;;;;;;8.05;3.40;;;;;;;;;;5051387;28;20031;-93
2020/12/31 01:33:49;;;;;;;8.90;3.80;;;;;;;;;;5050418;28;20128;-92
2020/12/31 01:36:15;;;;;;;11.32;4.85;;;;;;;;;;5055283;28;20028;-93
2020/12/31 01:38:41;;;;;;;11.02;5.10;;;;;;;;;;5052266;28;20032;-93
2020/12/31 01:41:08;;;;;;;9.63;5.57;;;;;;;;;;5052394;28;20032;-93
2020/12/31 01:43:34;;;;;;;14.30;5.60;;;;;;;;;;5054067;28;20119;-93
2020/12/31 01:46:00;;;;;;;17.17;5.55;;;;;;;;;;5053328;28;20036;-94
2020/12/31 01:48:26;;;;;;;11.90;4.28;;;;;;;;;;5051350;28;20029;-94
2020/12/31 01:50:53;;;;;;;8.90;3.60;;;;;;;;;;5052161;28;20121;-94
2020/12/31 01:53:21;;;;;;;8.85;3.30;;;;;;;;;;5053489;28;20021;-93
2020/12/31 01:55:47;;;;;;;7.88;2.40;;;;;;;;;;5051311;28;20029;-93
2020/12/31 01:58:13;;;;;;;6.50;2.88;;;;;;;;;;5058488;28;20116;-93
2020/12/31 02:00:39;;;;;;;7.63;2.67;;;;;;;;;;5052817;28;20079;-93
2020/12/31 02:03:05;;;;;;;7.57;2.67;;;;;;;;;;5053557;28;20020;-94
2020/12/31 02:05:31;;;;;;;7.20;3.20;;;;;;;;;;5049189;28;20029;-92
2020/12/31 02:07:57;;;;;;;8.88;3.65;;;;;;;;;;5052102;28;20055;-91
2020/12/31 02:10:23;;;;;;;8.85;4.03;;;;;;;;;;5059474;28;20040;-91
2020/12/31 02:12:51;;;;;;;10.02;4.15;;;;;;;;;;5060714;28;20033;-91
2020/12/31 02:15:17;;;;;;;10.57;5.20;;;;;;;;;;5052313;28;20048;-92
2020/12/31 02:17:44;;;;;;;10.85;6.00;;;;;;;;;;5052768;28;20017;-92
2020/12/31 02:20:13;;;;;;;11.48;6.28;;;;;;;;;;5052972;28;20025;-93
2020/12/31 02:22:39;;;;;;;12.55;5.95;;;;;;;;;;5054734;28;20033;-92
2020/12/31 02:25:05;;;;;;;8.80;5.45;;;;;;;;;;5059720;28;20489;-92
2020/12/31 02:27:31;;;;;;;9.75;5.47;;;;;;;;;;5052533;28;20021;-92
2020/12/31 02:29:57;;;;;;;11.32;4.63;;;;;;;;;;5052780;28;20028;-92
2020/12/31 02:32:24;;;;;;;10.98;4.60;;;;;;;;;;5055953;28;20025;-93
2020/12/31 02:34:50;;;;;;;9.73;4.72;;;;;;;;;;5064255;28;20071;-94
2020/12/31 02:37:16;;;;;;;7.15;3.90;;;;;;;;;;5052492;28;20029;-92
2020/12/31 02:39:42;;;;;;;8.93;4.80;;;;;;;;;;5052719;28;20064;-92
2020/12/31 02:42:08;;;;;;;12.65;4.72;;;;;;;;;;5052581;28;20021;-92
2020/12/31 02:44:34;;;;;;;7.43;4.32;;;;;;;;;;5051444;28;20021;-93
2020/12/31 02:47:00;;;;;;;10.73;5.43;;;;;;;;;;5050387;28;20032;-92
2020/12/31 02:49:26;;;;;;;10.02;4.95;;;;;;;;;;5058479;28;20025;-93
2020/12/31 02:51:52;;;;;;;10.30;5.20;;;;;;;;;;5051874;28;20026;-93
2020/12/31 02:54:18;;;;;;;9.38;4.78;;;;;;;;;;5054183;28;20445;-93
2020/12/31 02:56:45;;;;;;;8.30;4.68;;;;;;;;;;5050996;28;20024;-93
2020/12/31 02:59:11;;;;;;;10.00;5.05;;;;;;;;;;5044158;28;20079;-94
2020/12/31 03:01:37;;;;;;;8.52;4.60;;;;;;;;;;5051448;28;20021;-95
2020/12/31 03:04:03;;;;;;;11.65;4.88;;;;;;;;;;5054581;28;20036;-94
2020/12/31 03:06:29;;;;;;;11.80;4.95;;;;;;;;;;5051679;28;20033;-94
2020/12/31 03:08:55;;;;;;;12.70;5.07;;;;;;;;;;5052499;28;20029;-93
2020/12/31 03:11:22;;;;;;;14.90;5.25;;;;;;;;;;5047389;28;20147;-93
2020/12/31 03:13:49;;;;;;;9.85;5.57;;;;;;;;;;5060476;28;20028;-92
2020/12/31 03:16:15;;;;;;;12.63;5.55;;;;;;;;;;5047130;28;20026;-93
2020/12/31 03:18:41;;;;;;;13.02;5.88;;;;;;;;;;5061520;28;20049;-93
2020/12/31 03:21:09;;;;;;;10.52;5.55;;;;;;;;;;5054411;28;20418;-92
2020/12/31 03:23:35;;;;;;;10.77;5.85;;;;;;;;;;5054923;28;20021;-93
2020/12/31 03:26:01;;;;;;;11.68;5.93;;;;;;;;;;5058289;28;20033;-94
2020/12/31 03:28:27;;;;;;;9.57;5.10;;;;;;;;;;5048653;28;20505;-94
2020/12/31 03:30:53;;;;;;;11.07;5.22;;;;;;;;;;5052759;28;20128;-94
2020/12/31 03:33:20;;;;;;;9.88;5.82;;;;;;;;;;5053696;28;20029;-94
2020/12/31 03:35:47;;;;;;;12.98;6.53;;;;;;;;;;5051021;28;20202;-91
2020/12/31 03:38:14;;;;;;;9.23;5.28;;;;;;;;;;5053496;28;20111;-91
2020/12/31 03:40:40;;;;;;;10.32;5.90;;;;;;;;;;5053952;28;20021;-91
2020/12/31 03:43:07;;;;;;;10.82;6.18;;;;;;;;;;5057970;28;20029;-91
2020/12/31 03:45:34;;;;;;;12.27;6.07;;;;;;;;;;5068820;28;20024;-91
2020/12/31 03:48:00;;;;;;;11.23;6.30;;;;;;;;;;5066947;28;20052;-91
2020/12/31 03:50:26;;;;;;;11.55;6.10;;;;;;;;;;5053510;28;20032;-91
2020/12/31 03:52:53;;;;;;;10.30;5.88;;;;;;;;;;5053522;28;20078;-91
2020/12/31 03:55:19;;;;;;;11.02;6.00;;;;;;;;;;5055342;28;20049;-91
2020/12/31 03:57:45;;;;;;;10.02;6.22;;;;;;;;;;5050806;28;20422;-92
2020/12/31 04:00:12;;;;;;;10.25;6.70;;;;;;;;;;5055164;28;20487;-92
2020/12/31 04:02:38;;;;;;;12.40;6.50;;;;;;;;;;5054475;28;20029;-92
2020/12/31 04:05:05;;;;;;;13.15;6.90;;;;;;;;;;5054262;28;20048;-92
2020/12/31 04:07:31;;;;;;;14.25;7.32;;;;;;;;;;5054403;28;20446;-92
2020/12/31 04:09:57;;;;;;;12.63;6.75;;;;;;;;;;5054245;28;20049;-92
2020/12/31 04:12:23;;;;;;;13.35;7.20;;;;;;;;;;5054734;28;20034;-92
2020/12/31 04:14:49;;;;;;;12.73;7.25;;;;;;;;;;5039216;28;20025;-92
2020/12/31 04:17:16;;;;;;;12.65;7.57;;;;;;;;;;5060370;28;20079;-92
2020/12/31 04:19:42;;;;;;;13.52;7.10;;;;;;;;;;5052748;28;20139;-92
2020/12/31 04:22:09;;;;;;;12.95;7.43;;;;;;;;;;5058502;28;20489;-92
2020/12/31 04:24:35;;;;;;;14.77;7.00;;;;;;;;;;5058574;28;20285;-92
2020/12/31 04:27:01;;;;;;;11.23;6.95;;;;;;;;;;5063066;28;20467;-92
2020/12/31 04:29:27;;;;;;;12.10;7.20;;;;;;;;;;5053665;28;20045;-92
2020/12/31 04:31:53;;;;;;;12.30;7.30;;;;;;;;;;5053935;28;20017;-92
2020/12/31 04:34:20;;;;;;;11.82;7.47;;;;;;;;;;5051159;28;20052;-92
2020/12/31 04:36:46;;;;;;;11.32;7.43;;;;;;;;;;5048081;28;20028;-92
2020/12/31 04:39:12;;;;;;;15.23;7.78;;;;;;;;;;5055833;28;20017;-93
2020/12/31 04:41:38;;;;;;;13.40;8.23;;;;;;;;;;5049292;28;20014;-93
2020/12/31 04:44:04;;;;;;;11.80;7.63;;;;;;;;;;5053220;28;20029;-93
2020/12/31 04:46:33;;;;;;;14.27;7.80;;;;;;;;;;5049853;28;20037;-92
2020/12/31 04:49:06;;;;;;;14.75;8.05;;;;;;;;;;5052390;28;20025;-92
2020/12/31 04:51:35;;;;;;;12.93;7.07;;;;;;;;;;5051118;28;20044;-91
2020/12/31 04:54:02;;;;;;;12.57;7.70;;;;;;;;;;5052715;28;20033;-91
2020/12/31 04:56:30;;;;;;;13.80;8.05;;;;;;;;;;5053055;28;20098;-90
2020/12/31 04:58:56;;;;;;;12.70;7.82;;;;;;;;;;5056504;28;20103;-93
2020/12/31 05:01:22;;;;;;;13.43;8.25;;;;;;;;;;5054153;28;20029;-92
2020/12/31 05:03:48;;;;;;;13.95;7.90;;;;;;;;;;5052904;28;20033;-94
2020/12/31 05:06:16;;;;;;;14.77;7.43;;;;;;;;;;5051371;28;20024;-94
2020/12/31 05:08:43;;;;;;;16.67;9.63;;;;;;;;;;5051823;28;20254;-93
2020/12/31 05:11:09;;;;;;;12.45;8.35;;;;;;;;;;5057107;28;20029;-92
2020/12/31 05:13:51;;;;;;;13.77;8.10;;;;;;;;;;5052894;28;20071;-92
2020/12/31 05:16:27;;;;;;;13.60;8.07;;;;;;;;;;5052192;28;20025;-92
2020/12/31 05:18:54;;;;;;;14.13;7.93;;;;;;;;;;5053347;28;20029;-92
2020/12/31 05:21:20;;;;;;;13.85;7.95;;;;;;;;;;5053392;28;20021;-92
2020/12/31 05:23:46;;;;;;;16.98;9.30;;;;;;;;;;5053119;28;20025;-92
2020/12/31 05:26:12;;;;;;;15.20;8.75;;;;;;;;;;5048976;28;20040;-93
2020/12/31 05:28:41;;;;;;;14.88;8.80;;;;;;;;;;5051105;28;20048;-93
2020/12/31 05:31:11;;;;;;;16.25;9.40;;;;;;;;;;5046635;28;20025;-93
2020/12/31 05:33:38;;;;;;;15.77;8.18;;;;;;;;;;5048151;28;20029;-92
2020/12/31 05:36:16;;;;;;;17.75;10.20;;;;;;;;;;5041042;28;20033;-94
2020/12/31 05:39:06;;;;;;;16.77;9.23;;;;;;;;;;5052919;28;20013;-92
2020/12/31 05:41:32;;;;;;;15.20;9.55;;;;;;;;;;5060428;28;20037;-93
2020/12/31 05:43:59;;;;;;;15.95;9.63;;;;;;;;;;5046412;28;20048;-92
2020/12/31 05:46:26;;;;;;;15.75;8.48;;;;;;;;;;5053648;28;20134;-92
2020/12/31 05:48:56;;;;;;;15.88;9.13;;;;;;;;;;5046055;28;20050;-94
2020/12/31 05:51:23;;;;;;;19.05;9.90;;;;;;;;;;5053044;28;20494;-92
2020/12/31 05:53:49;;;;;;;17.10;10.35;;;;;;;;;;5050983;28;20029;-92
2020/12/31 05:56:16;;;;;;;16.38;9.48;;;;;;;;;;5054798;28;20033;-92
2020/12/31 05:58:46;;;;;;;18.35;10.82;;;;;;;;;;5053153;28;20016;-94
2020/12/31 06:01:13;;;;;;;19.55;10.10;;;;;;;;;;5055260;28;20028;-94
2020/12/31 06:03:46;;;;;;;15.35;9.75;;;;;;;;;;5056118;28;20029;-94
2020/12/31 06:06:16;;;;;;;14.80;9.27;;;;;;;;;;5058612;28;20070;-94
2020/12/31 06:08:48;;;;;;;19.55;10.43;;;;;;;;;;5043967;28;20043;-94
2020/12/31 06:11:16;;;;;;;17.38;9.93;;;;;;;;;;5055905;28;20964;-93
2020/12/31 06:13:48;;;;;;;17.15;9.57;;;;;;;;;;5056317;28;20033;-94
2020/12/31 06:16:16;;;;;;;16.30;9.43;;;;;;;;;;5050695;28;20035;-94
2020/12/31 06:18:45;;;;;;;19.27;11.18;;;;;;;;;;5054071;28;20032;-94
2020/12/31 06:21:14;;;;;;;15.80;9.55;;;;;;;;;;5051659;28;20098;-94
2020/12/31 06:23:41;;;;;;;16.58;10.43;;;;;;;;;;5051888;28;20029;-95
2020/12/31 06:26:12;;;;;;;14.93;8.75;;;;;;;;;;5049271;28;20079;-94
2020/12/31 06:28:41;;;;;;;18.42;10.48;;;;;;;;;;5063287;28;20029;-94
2020/12/31 06:31:07;;;;;;;19.25;11.05;;;;;;;;;;5051920;28;20560;-92
2020/12/31 06:33:43;;;;;;;17.85;10.98;;;;;;;;;;5037596;28;20021;-91
2020/12/31 06:36:10;;;;;;;22.60;10.30;;;;;;;;;;5049040;28;20032;-92
2020/12/31 06:38:38;;;;;;;18.13;11.00;;;;;;;;;;5054274;28;20029;-92
2020/12/31 06:41:05;;;;;;;21.67;11.90;;;;;;;;;;5055873;28;20037;-92
2020/12/31 06:43:36;;;;;;;20.17;11.38;;;;;;;;;;5047593;28;20532;-92
2020/12/31 06:46:16;;;;;;;19.17;11.00;;;;;;;;;;5050738;28;20030;-92
2020/12/31 06:48:42;;;;;;;19.98;11.60;;;;;;;;;;5049871;28;20029;-91
2020/12/31 06:51:12;;;;;;;21.23;10.93;;;;;;;;;;5051183;28;20025;-91
2020/12/31 06:53:48;;;;;;;18.35;11.48;;;;;;;;;;5055296;28;20020;-91
2020/12/31 06:56:14;;;;;;;22.45;11.93;;;;;;;;;;5047452;28;20029;-91
2020/12/31 06:58:41;;;;;;;21.23;11.70;;;;;;;;;;5050482;28;20016;-92
2020/12/31 07:01:24;;;;;;;20.98;11.88;;;;;;;;;;5052122;28;20058;-90
2020/12/31 07:03:50;;;;;;;22.35;11.95;;;;;;;;;;5050715;28;20552;-92
2020/12/31 07:06:22;;;;;;;19.60;11.43;;;;;;;;;;5044519;28;20036;-92
2020/12/31 07:08:49;;;;;;;21.15;12.52;;;;;;;;;;5055612;28;20024;-92
2020/12/31 07:11:15;;;;;;;24.15;13.55;;;;;;;;;;5052300;28;20483;-92
2020/12/31 07:13:41;;;;;;;25.15;13.77;;;;;;;;;;5045183;28;20021;-92
2020/12/31 07:16:08;;;;;;;25.92;14.38;;;;;;;;;;5052723;28;20021;-92
2020/12/31 07:18:34;;;;;;;23.55;13.35;;;;;;;;;;5055510;28;20053;-92
2020/12/31 07:21:00;;;;;;;25.70;14.48;;;;;;;;;;5054062;28;20029;-92
2020/12/31 07:23:39;;;;;;;28.10;14.55;;;;;;;;;;5056906;28;20033;-93
2020/12/31 07:26:05;;;;;;;25.05;14.13;;;;;;;;;;5059343;28;20032;-92
2020/12/31 07:28:32;;;;;;;23.17;13.38;;;;;;;;;;5054823;28;20052;-93
2020/12/31 07:30:58;;;;;;;23.30;14.68;;;;;;;;;;5053279;28;20165;-92
2020/12/31 07:33:37;;;;;;;22.95;13.18;;;;;;;;;;5054394;28;20029;-93
2020/12/31 07:36:13;;;;;;;22.08;12.40;;;;;;;;;;5058241;28;20098;-92
2020/12/31 07:38:39;;;;;;;21.02;13.30;;;;;;;;;;5057601;28;20168;-91
2020/12/31 07:41:11;;;;;;;21.83;12.05;;;;;;;;;;5053046;28;20204;-90
2020/12/31 07:43:37;;;;;;;21.83;12.13;;;;;;;;;;5055558;28;20523;-93
2020/12/31 07:46:04;;;;;;;21.58;12.25;;;;;;;;;;5052904;28;20021;-91
2020/12/31 07:48:31;;;;;;;20.63;12.38;;;;;;;;;;5060228;28;20021;-90
2020/12/31 07:50:58;;;;;;;19.55;12.25;;;;;;;;;;5054304;28;20029;-90
2020/12/31 07:53:24;;;;;;;21.52;13.55;;;;;;;;;;5053225;28;20036;-90
2020/12/31 07:55:52;;;;;;;20.27;12.00;;;;;;;;;;5051342;28;20029;-90
2020/12/31 07:58:19;;;;;;;20.77;12.48;;;;;;;;;;5054230;28;20021;-90
2020/12/31 08:00:45;;;;;;;21.90;12.18;;;;;;;;;;5054206;28;20048;-91
2020/12/31 08:03:11;;;;;;;22.92;12.25;;;;;;;;;;5053784;28;20032;-89
2020/12/31 08:05:38;;;;;;;24.73;12.65;;;;;;;;;;5039248;28;20032;-89
2020/12/31 08:08:04;;;;;;;19.95;11.65;;;;;;;;;;5054557;28;20392;-88
2020/12/31 08:10:35;;;;;;;20.25;12.38;;;;;;;;;;5059004;28;20037;-89
2020/12/31 08:13:03;;;;;;;18.90;10.97;;;;;;;;;;5037307;28;20037;-89
2020/12/31 08:15:29;;;;;;;22.08;11.80;;;;;;;;;;5055639;28;20041;-89
2020/12/31 08:17:56;;;;;;;20.85;12.07;;;;;;;;;;5066036;28;20027;-90
2020/12/31 08:20:24;;;;;;;26.77;14.57;;;;;;;;;;5051213;28;20021;-90
2020/12/31 08:22:51;;;;;;;22.75;12.90;;;;;;;;;;5051231;28;20024;-91
2020/12/31 08:25:20;;;;;;;23.02;12.82;;;;;;;;;;5050487;28;20020;-92
2020/12/31 08:27:47;;;;;;;22.88;12.60;;;;;;;;;;5050772;28;20120;-91
2020/12/31 08:30:14;;;;;;;26.13;13.07;;;;;;;;;;5053613;28;20045;-90
2020/12/31 08:32:50;;;;;;;22.35;13.68;;;;;;;;;;5055750;28;20037;-90
2020/12/31 08:35:22;;;;;;;29.48;14.93;;;;;;;;;;5059006;28;20139;-90
2020/12/31 08:37:58;;;;;;;29.35;15.25;;;;;;;;;;5055373;28;20025;-91
2020/12/31 08:40:24;;;;;;;27.80;14.85;;;;;;;;;;5053011;28;20052;-89
2020/12/31 08:42:53;;;;;;;30.80;16.52;;;;;;;;;;5052834;28;20108;-91
2020/12/31 08:45:32;;;;;;;22.73;14.05;;;;;;;;;;5054055;28;20033;-90
2020/12/31 08:48:15;;;;;;;21.73;12.90;;;;;;;;;;5063157;28;20037;-91
2020/12/31 08:50:41;;;;;;;33.88;16.20;;;;;;;;;;5047599;28;20033;-91
2020/12/31 08:53:08;;;;;;;28.85;16.55;;;;;;;;;;5058477;28;20044;-90
2020/12/31 08:55:37;;;;;;;27.48;14.50;;;;;;;;;;5063960;28;20048;-91
2020/12/31 08:58:13;;;;;;;29.83;15.63;;;;;;;;;;5059872;28;20125;-91
2020/12/31 09:00:39;;;;;;;25.50;14.13;;;;;;;;;;5052803;28;20026;-91
2020/12/31 09:03:06;;;;;;;26.92;15.90;;;;;;;;;;5054187;28;20103;-91
2020/12/31 09:05:32;;;;;;;25.55;15.75;;;;;;;;;;5056406;28;20056;-93
2020/12/31 09:08:08;;;;;;;25.35;14.80;;;;;;;;;;5057334;28;20116;-92
2020/12/31 09:10:37;;;;;;;28.27;14.85;;;;;;;;;;5064830;28;20078;-92
2020/12/31 09:13:04;;;;;;;22.77;14.27;;;;;;;;;;5051953;28;20037;-92
2020/12/31 09:15:31;;;;;;;34.50;17.83;;;;;;;;;;5049177;28;20028;-90
2020/12/31 09:17:58;;;;;;;29.45;16.90;;;;;;;;;;5054115;28;20016;-92
2020/12/31 09:20:26;;;;;;;35.00;17.42;;;;;;;;;;5053375;28;20074;-91
2020/12/31 09:22:53;;;;;;;31.08;16.75;;;;;;;;;;5044864;28;20037;-91
2020/12/31 09:25:20;;;;;;;30.08;17.35;;;;;;;;;;5040786;28;20068;-91
2020/12/31 09:27:46;;;;;;;27.13;16.10;;;;;;;;;;5043470;28;20033;-91
2020/12/31 09:30:14;;;;;;;28.55;16.10;;;;;;;;;;5038294;28;20507;-93
2020/12/31 09:32:40;;;;;;;29.35;16.50;;;;;;;;;;5052758;28;20033;-92
2020/12/31 09:35:06;;;;;;;30.15;15.90;;;;;;;;;;5054865;28;20092;-94
2020/12/31 09:37:55;;;;;;;30.58;17.20;;;;;;;;;;5053545;28;20020;-93
2020/12/31 09:40:21;;;;;;;27.13;16.15;;;;;;;;;;5053840;28;20104;-94
2020/12/31 09:42:47;;;;;;;39.60;19.25;;;;;;;;;;5055691;28;20067;-95
2020/12/31 09:45:13;;;;;;;57.83;27.13;;;;;;;;;;5052493;28;20606;-93
2020/12/31 09:47:39;;;;;;;58.50;29.85;;;;;;;;;;5065206;28;20560;-94
2020/12/31 09:50:08;;;;;;;46.42;26.30;;;;;;;;;;5057124;28;20494;-95
2020/12/31 09:52:34;;;;;;;45.75;25.73;;;;;;;;;;5051605;28;20021;-95
2020/12/31 09:55:00;;;;;;;41.70;23.13;;;;;;;;;;5050679;28;20025;-94
2020/12/31 09:57:27;;;;;;;45.45;22.95;;;;;;;;;;5049640;28;20021;-93
2020/12/31 09:59:53;;;;;;;39.13;18.70;;;;;;;;;;5051362;28;20028;-93
2020/12/31 10:02:19;;;;;;;49.75;22.45;;;;;;;;;;5051305;28;20120;-93
2020/12/31 10:04:45;;;;;;;31.08;17.70;;;;;;;;;;5049644;28;20108;-95
2020/12/31 10:07:12;;;;;;;32.95;16.35;;;;;;;;;;5047385;28;20476;-91
2020/12/31 10:09:38;;;;;;;27.55;13.68;;;;;;;;;;5052132;28;20034;-93
2020/12/31 10:12:04;;;;;;;32.60;15.10;;;;;;;;;;5055675;28;20025;-92
2020/12/31 10:14:30;;;;;;;26.25;11.23;;;;;;;;;;5056364;28;20115;-91
2020/12/31 10:16:56;;;;;;;28.15;12.85;;;;;;;;;;5051915;28;20013;-91
2020/12/31 10:19:23;;;;;;;25.45;12.15;;;;;;;;;;5055040;28;20021;-92
2020/12/31 10:21:49;;;;;;;25.55;11.82;;;;;;;;;;5056216;28;20482;-93
2020/12/31 10:24:16;;;;;;;21.73;10.90;;;;;;;;;;5057705;28;20090;-95
2020/12/31 10:26:45;;;;;;;23.80;11.90;;;;;;;;;;5052663;28;20029;-94
2020/12/31 10:29:12;;;;;;;27.67;11.13;;;;;;;;;;5049710;28;20044;-92
2020/12/31 10:31:38;;;;;;;24.30;12.13;;;;;;;;;;5051643;28;20056;-93
2020/12/31 10:34:04;;;;;;;25.58;12.02;;;;;;;;;;5047637;28;20028;-90
2020/12/31 10:36:30;;;;;;;24.05;12.63;;;;;;;;;;5052359;28;20025;-94
2020/12/31 10:38:56;;;;;;;24.90;12.60;;;;;;;;;;5048571;28;20021;-94
2020/12/31 10:41:22;;;;;;;24.05;11.82;;;;;;;;;;5049711;28;20025;-95
2020/12/31 10:43:48;;;;;;;31.13;12.85;;;;;;;;;;5049503;28;20544;-93
2020/12/31 10:46:20;;;;;;;24.40;11.95;;;;;;;;;;5047676;28;20116;-94
2020/12/31 10:48:46;;;;;;;;;;;;;;;;;;5052553;28;20451;-93
2020/12/31 10:51:12;;;;;;;23.35;12.07;;;;;;;;;;5091607;28;19915;-94
2020/12/31 10:53:38;;;;;;;19.85;12.10;;;;;;;;;;5063905;28;20474;-93
2020/12/31 10:56:04;;;;;;;23.45;12.02;;;;;;;;;;5050847;28;20471;-94
2020/12/31 10:58:31;;;;;;;18.75;10.43;;;;;;;;;;5051952;28;20506;-93
2020/12/31 11:00:57;;;;;;;20.58;10.65;;;;;;;;;;5055718;28;20040;-94
2020/12/31 11:03:23;;;;;;;14.45;9.18;;;;;;;;;;5055820;28;20584;-93
2020/12/31 11:05:49;;;;;;;16.60;7.70;;;;;;;;;;5046070;28;20493;-89
2020/12/31 11:08:15;;;;;;;17.42;7.55;;;;;;;;;;5054418;28;20051;-89
2020/12/31 11:10:41;;;;;;;14.70;8.02;;;;;;;;;;5060572;28;20037;-89
2020/12/31 11:13:07;;;;;;;15.18;7.30;;;;;;;;;;5055281;28;20032;-90
2020/12/31 11:15:33;;;;;;;10.85;6.38;;;;;;;;;;5048015;28;20460;-90
2020/12/31 11:17:59;;;;;;;13.82;5.68;;;;;;;;;;5053093;28;20017;-90
2020/12/31 11:20:26;;;;;;;7.82;4.38;;;;;;;;;;5053216;28;20021;-90
2020/12/31 11:22:52;;;;;;;13.13;5.60;;;;;;;;;;5051041;28;20025;-90
2020/12/31 11:25:18;;;;;;;10.63;5.15;;;;;;;;;;5047292;28;20037;-89
2020/12/31 11:27:44;;;;;;;9.43;4.80;;;;;;;;;;5054136;28;20022;-89
2020/12/31 11:30:10;;;;;;;12.57;5.38;;;;;;;;;;5062697;28;20421;-89
2020/12/31 11:32:37;;;;;;;8.93;4.40;;;;;;;;;;5059012;28;20402;-92
2020/12/31 11:35:03;;;;;;;9.85;4.63;;;;;;;;;;5061424;28;20236;-91
2020/12/31 11:37:29;;;;;;;7.97;4.75;;;;;;;;;;5066434;28;20024;-92
2020/12/31 11:39:55;;;;;;;7.65;3.92;;;;;;;;;;5046847;28;20024;-91
2020/12/31 11:42:21;;;;;;;8.32;3.42;;;;;;;;;;5059179;28;20080;-93
2020/12/31 11:44:47;;;;;;;9.65;4.60;;;;;;;;;;5053034;28;20123;-92
2020/12/31 11:47:14;;;;;;;7.75;3.88;;;;;;;;;;5053235;28;20018;-92
2020/12/31 11:49:40;;;;;;;10.40;4.30;;;;;;;;;;5057847;28;20081;-92
2020/12/31 11:52:06;;;;;;;8.73;4.28;;;;;;;;;;5058013;28;20018;-92
2020/12/31 11:54:32;;;;;;;9.02;4.43;;;;;;;;;;5052243;28;20029;-92
2020/12/31 11:56:58;;;;;;;8.40;4.72;;;;;;;;;;5038921;28;20048;-90
2020/12/31 11:59:24;;;;;;;11.70;4.90;;;;;;;;;;5051640;28;20025;-88
2020/12/31 12:01:50;;;;;;;8.77;4.82;;;;;;;;;;5044102;28;20652;-89
2020/12/31 12:04:17;;;;;;;10.00;3.47;;;;;;;;;;5058033;28;20051;-89
2020/12/31 12:06:54;;;;;;;2.40;1.10;;;;;;;;;;5048405;28;20033;-90
2020/12/31 12:09:20;;;;;;;2.83;1.00;;;;;;;;;;5057455;28;20055;-90
2020/12/31 12:11:47;;;;;;;3.08;0.82;;;;;;;;;;5054003;28;20033;-89
2020/12/31 12:14:13;;;;;;;3.83;0.80;;;;;;;;;;5057552;28;20021;-90
2020/12/31 12:16:42;;;;;;;4.93;0.80;;;;;;;;;;5048317;28;20051;-92
2020/12/31 12:19:11;;;;;;;2.92;0.63;;;;;;;;;;5045981;28;20086;-91
2020/12/31 12:21:38;;;;;;;2.83;0.98;;;;;;;;;;5051550;28;20064;-89
2020/12/31 12:24:04;;;;;;;3.22;0.50;;;;;;;;;;5051599;28;20116;-90
2020/12/31 12:26:34;;;;;;;1.35;0.40;;;;;;;;;;5051646;28;20029;-89
2020/12/31 12:29:00;;;;;;;1.67;0.60;;;;;;;;;;5054422;28;20049;-90
2020/12/31 12:31:30;;;;;;;1.63;0.50;;;;;;;;;;5055206;28;20171;-90
2020/12/31 12:33:57;;;;;;;2.55;0.85;;;;;;;;;;5051911;28;20021;-91
2020/12/31 12:36:23;;;;;;;2.63;0.68;;;;;;;;;;5048566;28;20494;-91
2020/12/31 12:38:49;;;;;;;2.58;0.52;;;;;;;;;;5050046;28;20491;-91
2020/12/31 12:41:15;;;;;;;4.60;0.50;;;;;;;;;;5054600;28;20045;-90
2020/12/31 12:43:41;;;;;;;3.92;0.73;;;;;;;;;;5053500;28;20091;-91
2020/12/31 12:46:07;;;;;;;2.03;0.55;;;;;;;;;;5044242;28;20033;-91
2020/12/31 12:48:33;;;;;;;2.00;0.65;;;;;;;;;;5050409;28;20056;-91
2020/12/31 12:50:59;;;;;;;2.63;0.65;;;;;;;;;;5049645;28;20017;-93
2020/12/31 12:53:25;;;;;;;1.33;0.55;;;;;;;;;;5059490;28;20032;-93
2020/12/31 12:55:51;;;;;;;3.38;0.88;;;;;;;;;;5051257;28;20028;-92
2020/12/31 12:58:18;;;;;;;4.80;0.90;;;;;;;;;;5057160;28;20021;-93
2020/12/31 13:00:44;;;;;;;5.43;0.90;;;;;;;;;;5053024;28;20111;-92
2020/12/31 13:03:10;;;;;;;1.75;0.73;;;;;;;;;;5055294;28;20087;-90
2020/12/31 13:05:36;;;;;;;2.47;0.90;;;;;;;;;;5050664;28;20083;-89
2020/12/31 13:08:02;;;;;;;1.55;0.50;;;;;;;;;;5052737;28;20025;-89
2020/12/31 13:10:28;;;;;;;5.90;0.90;;;;;;;;;;5052250;28;20036;-92
2020/12/31 13:12:54;;;;;;;3.88;0.80;;;;;;;;;;5048638;28;20037;-87
2020/12/31 13:15:20;;;;;;;2.90;0.90;;;;;;;;;;5048176;28;20223;-92
2020/12/31 13:17:46;;;;;;;2.35;0.80;;;;;;;;;;5051658;28;20044;-91
2020/12/31 13:20:12;;;;;;;3.78;0.77;;;;;;;;;;5053368;28;20075;-88
2020/12/31 13:22:38;;;;;;;2.08;0.68;;;;;;;;;;5054235;28;20194;-94
2020/12/31 13:25:04;;;;;;;2.30;0.68;;;;;;;;;;5050496;28;20024;-92
2020/12/31 13:27:30;;;;;;;2.85;0.40;;;;;;;;;;5050905;28;20154;-94
2020/12/31 13:29:56;;;;;;;4.57;0.85;;;;;;;;;;5050364;28;20328;-93
2020/12/31 13:32:22;;;;;;;3.53;0.57;;;;;;;;;;5054414;28;20025;-92
2020/12/31 13:34:48;;;;;;;6.82;0.77;;;;;;;;;;5066056;28;20044;-95
2020/12/31 13:37:14;;;;;;;5.35;1.02;;;;;;;;;;5051662;28;20028;-95
2020/12/31 13:39:40;;;;;;;6.53;0.73;;;;;;;;;;5055870;28;20021;-94
2020/12/31 13:42:10;;;;;;;5.30;0.60;;;;;;;;;;5057379;28;20075;-94
2020/12/31 13:44:36;;;;;;;1.85;0.70;;;;;;;;;;5053524;28;20028;-95
2020/12/31 13:47:03;;;;;;;2.75;0.60;;;;;;;;;;5052344;28;20044;-96
2020/12/31 13:49:29;;;;;;;3.65;0.70;;;;;;;;;;5057634;28;20410;-96
2020/12/31 13:51:55;;;;;;;1.65;0.60;;;;;;;;;;5054307;28;20036;-96
2020/12/31 13:54:21;;;;;;;3.63;0.63;;;;;;;;;;5047205;28;20518;-95
2020/12/31 13:56:48;;;;;;;3.03;1.23;;;;;;;;;;5049778;28;20021;-96
2020/12/31 13:59:14;;;;;;;3.65;0.50;;;;;;;;;;5051240;28;20025;-96
2020/12/31 14:01:41;;;;;;;0.77;0.22;;;;;;;;;;5057464;28;20524;-96
2020/12/31 14:04:09;;;;;;;9.05;0.80;;;;;;;;;;5053201;28;20065;-96
2020/12/31 14:06:35;;;;;;;5.35;0.77;;;;;;;;;;5052962;28;20490;-96
2020/12/31 14:09:01;;;;;;;8.38;1.15;;;;;;;;;;5052631;28;20028;-94
2020/12/31 14:11:28;;;;;;;11.07;0.95;;;;;;;;;;5053018;28;20033;-95
2020/12/31 14:13:54;;;;;;;3.72;1.02;;;;;;;;;;5054435;28;20025;-95
2020/12/31 14:16:23;;;;;;;4.22;0.70;;;;;;;;;;5041824;28;20495;-95
2020/12/31 14:18:49;;;;;;;4.53;0.75;;;;;;;;;;5056253;28;20083;-95
2020/12/31 14:21:15;;;;;;;4.82;0.80;;;;;;;;;;5054914;28;20044;-95
2020/12/31 14:23:41;;;;;;;6.65;0.93;;;;;;;;;;5053838;28;20098;-96
2020/12/31 14:26:08;;;;;;;9.25;1.55;;;;;;;;;;5046140;28;20032;-95
2020/12/31 14:28:34;;;;;;;3.72;0.75;;;;;;;;;;5054361;28;20041;-96